cliquez pour ajouter le site Runraid à vos favoris  English version (google)  Retour à l'accueil Ecrire à l'auteur du site Runraid : Michel Jourdan



Les prochaines courses


Les derniers résultats

cliquez pour visualiser la page complète relatant la chronologie des éruptions du Piton de la Fournaise
éruptions Piton de la Fournaise


Ile de La Réunion

 Diagonale des Fous 

Ecrire au créateur du site : Michel Jourdan
Contact


2018-04-28 - Madeira Island Ultra Trail 115km

Pour consulter le palmarès d'un coureur, un clic sur son nom !

Vous avez des remarques, corrections, ... sur ces résultats , un clic sur --> pour me transmettre toute information concernant les classements


Madeira Island Ultra Trail 115km - 2018 : classement des 496 finishers
Place Nom Temps Cat. Club Sexe Clt/cat.
Place Nom Temps Cat. Club Sexe Clt/cat.
1 RONIMOISS Andris 13:57:10 LAT Inov8 Isostar Suunto M 0
2 DUNAND PALLAZ Aurelien 14:19:05 FRA Scarpa/Compressport M 0
3 GAMITO Jordi 14:22:28 ESP Compressport Internat M 0
4 CAMUS Sebastien 14:26:32 FRA Team GARMIN M 0
5 DOMINGUEZ LEDO Javier 14:52:08 ESP TEAM VIBRAM M 0
6 HALL Damian 14:59:27 GBR Inov-8 M 0
7 LOPEZ Joaquin 15:06:05 ECU WAA TEAM / Movistar M 0
8 LUDOVISI Emanuele 15:20:48 ITA D+ Trail M 0
9 FREITAS Francisco 15:22:17 POR M 0
10 SANCHEZ SAEZ Sebas 15:37:35 ESP M 0
11 ROUANET Renaud 15:45:46 FRA M 0
12 VINAGRE Alberto 15:50:39 ESP Btr Proteam M 0
13 KOTKA Mimmi 15:51:31 SWE SALOMON F 1ere F 0
14 GRINIUS Gediminas 15:55:55 LTU VIBRAM / Team VIBRAM M 0
15 OLSON Tim 16:07:01 USA The North Face M 0
16 HENRI Sebastien 16:45:47 FRA M 0
17 VALENTINO Aurelio 16:52:59 SUI Altmannsport / Compre M 0
18 GOLEA Cedric 16:53:22 FRA M 0
19 COLLISON Kim 16:56:27 GBR Raidlight UK / Borrow M 0
20 VIEIRA Flavio 17:03:31 POR M 0
21 LECOURT Philippe 17:08:58 FRA M 0
22 MARIN Jeremie 17:13:57 FRA Paul Brondex / CS Meg M 0
23 GUILLEMIN Christophe 17:20:20 FRA M 0
24 ARAUJO Arcadio 17:26:20 ESP M 0
25 JURA Rafa 17:27:56 POL M 0
26 FERREIRA Daniel 17:34:36 POR M 0
27 DUJARDIN Vincent 17:40:17 FRA Team du Caillou M 0
28 PUENTE PELAYO Diego 17:45:36 ESP Cerredo 643 M 0
29 SKOKAN Dominik 17:50:02 CZE M 0
30 GONCALVES Hugo 17:51:37 POR M 0
31 SUPPI Jerome 17:52:30 FRA M 0
32 KLEIN Guillaume 17:57:31 FRA RUN GREEN / ESTY M 0
33 VIEIRA Nelson 17:58:02 POR Clube Montanha do Fun M 0
34 CERDEIRA Frederico 17:59:29 POR Monsanto Running Team M 0
35 SEQUEIRA Rui 18:00:33 POR AMCF - Arr?bida Trail M 0
36 VIVIEN Morgan 18:07:38 FRA M 0
37 ARRO Luca 18:13:12 ITA M 0
38 SOUSA Magno 18:13:17 POR M 0
39 BIARD Antoine 18:20:33 FRA M 0
40 BASSAC Audrey 18:23:16 FRA Vibram F 2 F 0
41 VERISSIMO Marcolino 18:31:28 POR AMCF - Arr?bida Trail M 0
42 CONVERT Jean Marc 18:31:48 FRA M 0
43 BLANCHET Juliette 18:38:46 FRA Team Vibram F 3 F 0
44 VITET Adrien 18:44:40 FRA Coinsecrets M 0
45 GEZELA Mariusz 18:46:41 POL TJ EuforiaBiegacza.pl M 0
46 LOBO Ezequiel 18:48:38 POR M 0
47 EMMERSON Kellie 18:52:14 AUS Hoka One One Australi F 4 F 0
48 FORI Katia 18:52:56 ITA F 5 F 0
49 WAMSTER David 18:57:49 FRA M 0
50 MODESTO Diogo 19:01:32 POR M 0
51 BATATA Daniel 19:17:15 POR Atletismo Clube da To M 0
52 RENIER Yannick 19:18:23 FRA M 0
53 MISIAK Bartosz 19:19:39 POL M 0
54 CASELLI Cristian 19:20:58 ITA M 0
55 CASTRO MArcio 19:22:33 POR M 0
56 GOMES Mauricio 19:24:35 POR M 0
57 GALPIN Thomas 19:24:37 FRA Hoka - Running Consei M 0
58 SERAFINI Jean Pierre 19:35:29 LUX M 0
59 BRAND Naomi 19:43:47 F 6 F 0
60 FIEDLER Dietmar 19:45:42 AUT M 0
61 BUCHMANN Willy 19:47:26 FRA M 0
62 GAILLARD Benoit 19:50:32 FRA UA Societe Generale M 0
63 FERREIRA Joao 19:56:17 POR M 0
64 PORIEL Yannick 20:07:40 FRA Juillan Running Club M 0
65 TOFFOLI Piero 20:09:42 ITA M 0
66 CARVALHO Paulo 20:15:06 POR Coimbra Trail Running M 0
67 COGLEY Justin 20:21:05 USA M 0
68 MAZZUCCHELLI Bruno 20:21:47 FRA M 0
68 DJOUMI Lyes 20:21:47 FRA M 0
70 SILVA Manuel 20:21:48 POR OZxtreme / OZxtreme M 0
71 PRIMAULT Cedric 20:24:44 FRA M 0
72 MUZELLE Charles 20:24:46 FRA M 0
73 CRISPIM Pedro 20:29:13 POR Caracol Trail Team M 0
74 CAIRES Andre 20:31:47 POR M 0
75 SOUSA Timoteo 20:31:54 POR M 0
76 BETTS Michael 20:34:51 GBR M 0
77 PROSPERI Bastien 20:35:58 FRA M 0
78 BENTO Daniel 20:36:55 POR Coimbra Trail Running M 0
78 MELO Miguel 20:36:55 POR Coimbra Trail Running M 0
80 CUSSOT Sylvaine 20:37:21 FRA asics/i-run.fr / free F 7 F 0
81 MORIN Olivier 20:39:22 FRA Trace de Trail / fauc M 0
82 TANGUY Lionel 20:40:07 FRA M 0
83 CUNHA Andre 20:45:24 POR M 0
84 VALMIR Lana 20:47:37 BRA M 0
85 FATTON Christian 20:53:23 SUI M 0
86 MONTE Francisco 20:53:41 POR M 0
87 CHARREAU Benoist 20:54:12 FRA M 0
88 DE SOUSA Olivia 20:54:24 POR F 8 F 0
89 MULLINS Brian 20:56:19 IRL St Finbarrs AC M 0
90 COSTA Joao 20:57:59 M 0
91 SEMERJIAN Maria 21:04:01 FRA I-Run F 9 F 0
92 PEREIRA Leon 21:09:52 M 0
93 NIELSEN Erik Waage 21:10:54 NOR M 0
94 DEGRAEVE Jeremie 21:14:51 FRA TEAM Rand'O'Run M 0
95 BONDARA Sylwia 21:16:40 POL F 10 F 0
96 WEBER Markus 21:16:59 GER M 0
97 DECHNIK Pierre 21:17:12 FRA M 0
98 POULIN Stephane 21:18:18 CAN M 0
99 PHILIPPOT Florian 21:19:47 FRA M 0
100 LE NOIR DE CARLAN Baptiste 21:25:11 FRA M 0
101 TRIC Philippe 21:25:30 FRA M 0
102 CHAVES AprIgio 21:28:11 POR M 0
103 SCHAAR Matt 21:30:40 USA San Francisco Running M 0
104 OAKES Duncan 21:31:36 GBR M 0
105 VIVEIROS Ana_luisa 21:32:17 POR F 11 F 0
106 MUHM David 21:32:30 AUT M 0
107 RODRIGUEZ Aaron 21:33:40 ESP M 0
108 FERREIRA Hugo 21:35:54 POR M 0
109 TOUTAIN Laurent 21:37:30 FRA AS CAVAILLON M 0
110 TAVARES DE LEMOS Helder 21:37:37 POR OCS Proaventuras M 0
111 COELHO Vitor 21:38:34 POR M 0
112 GoIS Bruno 21:40:12 POR M 0
113 PINTO Joel 21:44:02 POR M 0
114 WIEWAUTERS Dries 21:45:04 BEL AVLO M 0
115 NOWICKI Kristof 21:47:03 GBR M 0
116 BIGOTTO THOUVENIN Thomas 21:47:23 FRA M 0
117 LAMENDOUR Serge 21:47:38 FRA M 0
118 SALOM Olivier 21:48:39 FRA RTN30 M 0
119 MONCANUT Baptiste 21:49:43 FRA Salomon / G?n?ration M 0
120 PAJARO Paolo 21:50:35 ITA M 0
121 FRANCOIS Matthias 21:50:59 FRA M 0
122 BJARKO Arild 21:57:08 NOR M 0
123 JERMANN Sandro 21:57:53 SUI M 0
124 GARDENER Jacek 21:58:08 POL JacekBiega Running Te M 0
125 GEFFARD Thibaut 21:58:15 FRA M 0
125 DORE Christopher 21:58:15 FRA M 0
127 DUCRUIX Cedric 22:02:06 FRA M 0
127 LUCE Michel 22:02:06 FRA M 0
129 KASTU Jussi 22:06:57 SUI M 0
130 GRUCKER Laurent 22:07:54 FRA M 0
131 GARNERO Costanzo 22:10:50 ITA M 0
132 WALLACE Scott 22:14:24 GBR Goring Road Runners M 0
133 ALMEIDA Ricardo 22:15:09 POR Morcegos Trail / Morc M 0
134 GALLENNE Christophe 22:15:26 FRA M 0
135 CORDONNIER Ludovic 22:16:01 FRA M 0
136 RINGEVAL Celine 22:16:22 FRA F 12 F 0
137 MORENO MORA Jacobo 22:19:55 ESP Corremon M 0
138 HOULE Vincent 22:21:02 CAN M 0
139 RODRIGUES Luis 22:21:24 POR M 0
140 CLAUSEN Kelsie 22:23:06 USA F 13 F 0
141 GONCALVES Ricardo 22:26:06 POR ADRAP / HortiCalheta M 0
142 LEROGERON Francois 22:28:10 FRA M 0
143 PITA Rui 22:34:16 POR M 0
144 LE PEIH Fabien 22:35:43 FRA UA SOCIETE GENERALE M 0
145 MOKRY Martin 22:39:15 CZE M 0
146 LISOWSKI Jacek 22:40:23 POL STAY INSANE M 0
147 COLAcO Romeu 22:41:54 POR Ginasio Quinta do Val M 0
148 PEREIRA Nuno Filipe 22:41:56 POR M 0
149 ALIJA GARCIA Laura 22:42:09 ESP F 14 F 0
150 LIMA David 22:43:04 POR M 0
151 CAETANO Jo o 22:43:35 POR M 0
152 MUHLBERG Ronny 22:43:46 GER M 0
153 RABITO Massimo 22:43:53 ITA M 0
154 WILLIS Sarah 22:45:58 USA BTK Trailteam F 15 F 0
155 OSL Max 22:50:23 AUT Team-Wieshof M 0
156 LEAL Tiago 22:50:59 POR M 0
157 CARVALHO Eduardo 22:52:05 POR M 0
158 VIEIRA Nuno 22:52:07 POR M 0
159 PEREIRA Jose 22:52:44 POR M 0
160 PEREIRA Jorge 22:52:45 POR M 0
161 SIMOES Antonio 22:53:00 POR M 0
162 FORGUES Jessy 22:55:03 CAN F 16 F 0
163 RAPOSO Jo o 23:01:11 POR Morcegos Trail M 0
164 MONTEIRO Jose 23:01:52 POR SS CGD M 0
165 PINHO Xavier 23:02:36 POR M 0
166 MENGIN Vincent 23:05:50 FRA M 0
167 MARTINS SILVESTRE Natercia 23:10:13 POR F 17 F 0
168 FLEMR Matyas 23:10:32 CZE M 0
169 ABREU Ricardo 23:15:58 POR M 0
170 PIRES Andre 23:16:00 POR M 0
171 DELIAU Bastien 23:17:38 FRA BDMONTAGNE / DIJON TR M 0
172 ALVES RODRIGUES Oscar Filipe 23:20:02 POR M 0
173 MIQUEL Philippe 23:23:04 FRA M 0
174 THOMAS Fabrice 23:23:53 FRA M 0
175 SZALAK Pawel 23:23:55 POL Stay Insane M 0
176 BIGOT Simon 23:24:55 FRA M 0
177 HURDLE Richard 23:26:31 GBR M 0
178 LEAL MArio 23:26:49 POR AZORES TRAIL RUN? / C M 0
179 TRALLI Hadrien 23:28:24 FRA M 0
180 JALMIN Loic 23:28:44 FRA M 0
181 LYE Ian 23:29:21 SGP M 0
182 NEDLAND Magnar 23:32:09 NOR M 0
183 PLAVAN Marina 23:34:56 ITA F 18 F 0
184 BASTIAN Fabricio 23:34:57 DEN Passion Sport / La Sp M 0
185 PIERRE Vincent 23:36:21 FRA VIROFLAY RUNNING TRAI M 0
186 BARREIRO Ricardo 23:37:25 POR M 0
187 CARVALHO Adelino 23:44:23 POR Monsanto Running Team M 0
188 MARSZALEK Slawomir 23:44:50 POL M 0
189 CURUTCHET Julien 23:45:41 FRA M 0
190 VILLENA MARTINEZ Antonio Jesus 23:47:08 ESP M 0
191 GOUVEIA Helder 23:47:26 POR Clube Desportivo Infa M 0
192 PAWEZKA Miroslaw 23:48:15 POL Stay Insane / Stay In M 0
193 CARLONI Stefano 23:48:46 ITA M 0
194 REGAZZONI Elodie 23:50:04 FRA F 19 F 0
195 LOMBARD Antoine 23:52:25 FRA M 0
196 JOUBERT Frederic 23:52:49 FRA M 0
197 MITRANI Sebastien 23:52:53 FRA M 0
198 CHLADEK Roman 23:53:23 CZE RunSport Team / RunSp M 0
199 GUAL Eva 23:54:35 ESP F 20 F 0
200 RENOUARD Lo c 23:56:57 FRA M 0
201 VANIER Hugues 24:00:31 FRA M 0
202 RENARD Alexandrine 24:00:58 FRA Rand'o'Run / K-raid A F 21 F 0
203 SANTOS Jose 24:04:04 POR M 0
204 KJELDSBERG Mona 24:13:02 NOR F 22 F 0
205 CAPELA Joaquim 24:13:09 POR M 0
206 SANTOS FAbio Vitorino 24:13:12 POR M 0
207 BALLET BAZ Jeremie 24:13:33 FRA M 0
208 FAGOT Olivier 24:13:46 FRA M 0
208 GERARD Panpi 24:13:46 FRA M 0
210 MESGUEN Sebastien 24:13:48 FRA M 0
210 BONNERY Martial 24:13:48 FRA Midi run / Team Bonne M 0
212 GARCIA GARCIA David 24:14:25 ESP M 0
213 BELAL Ahmed 24:16:00 FRA M 0
214 RODRIGUES LuIs 24:21:19 POR M 0
215 SILVA Humberto 24:21:41 POR M 0
216 PAWLACZEK Michal 24:21:58 POL M 0
217 ZANOLI Stefano 24:22:12 ITA M 0
218 MADEIRA Antonio 24:22:31 POR M 0
219 LAHCEN Moktar 24:22:34 FRA M 0
220 COSTA Isaac 24:23:32 POR M 0
221 LE SIGNOR Patrice 24:27:39 FRA RUN AND SWIM - QUIMPE M 0
222 LOPES Vasco 24:28:35 POR M 0
223 LE COZ Michel 24:29:51 FRA M 0
224 NICAISE Christophe 24:31:15 FRA M 0
225 NIEDZIELSKI Robert 24:32:05 POL M 0
226 CHOLET Jean Marc 24:41:03 Fra M 0
227 GOSTY SKI Krzysztof 24:42:02 POL M 0
228 CARVALHO Miguel 24:45:38 POR M 0
228 LOURENCO Alexandre 24:45:38 POR M 0
230 SILVA Nuno 24:45:39 POR M 0
231 FARIA Nuno 24:47:28 POR Monsanto Running Team M 0
232 TORRES Filipe 24:47:29 POR Grupo Desportivo da P M 0
233 FIGUEIRA Luis 24:47:39 POR M 0
233 MOREIRA Carlos 24:47:39 POR M 0
235 LAFFON Pierre 24:50:20 FRA M 0
236 QUINTAL Ricardo Jorge 24:53:18 POR M 0
237 CARDOSO Germano 24:56:47 POR M 0
238 MAURO Camara 24:57:14 POR M 0
239 LE DORTZ Romain 24:59:12 FRA M 0
240 SOARES Jose 25:02:44 POR M 0
241 P AWECKI Leszek 25:03:06 POL M 0
242 VIEIRA Fabio 25:04:58 POR M 0
243 NIEMINEN Piia 25:08:12 FIN F 23 F 0
244 LE HERISSIER Jean Marie 25:08:52 FRA M 0
245 BOERI Celeste 25:09:17 ITA M 0
246 SANCHES Joao 25:10:56 POR M 0
246 RIBEIRO Eduardo Cadima 25:10:56 POR M 0
248 MENDONCA Duarte 25:12:05 POR M 0
249 MOREL Gerald 25:12:33 FRA Les ?clop?s M 0
250 ANTONUCCI Pascal 25:13:12 FRA M 0
251 PIERSON Renaud 25:13:50 FRA M 0
252 FERNANDES Ricardo 25:14:44 POR M 0
253 TIERNY Arnaud 25:14:46 FRA M 0
254 CASTRO enio 25:15:14 POR M 0
255 MOREIRA Sergio 25:15:41 POR M 0
256 HERMENIER Roland 25:20:28 FRA M 0
257 THOMAS Christophe 25:21:27 BEL TraKKs Team / TraKKs M 0
258 MOTA Joao 25:23:06 POR Clube de Montanha do M 0
259 DEMPERE Pierre 25:25:54 FRA M 0
260 MERCET Gerald 25:29:19 FRA M 0
261 WALCZAK Maciej 25:31:38 POL QUAY POZNA? M 0
262 HOFER Otmar 25:35:44 ESP M 0
263 ABET Adrian 25:38:06 FRA M 0
264 RODRIGUES Rafael 25:42:30 POR M 0
265 MUCKOVA Petra 25:49:28 CZE MONTANE UK & VIVOBARE F 24 F 0
266 WILLOCQ Jean 25:53:23 FRA M 0
267 TENRET Vincent 25:53:51 FRA M 0
268 CALDEIRA VItor 25:54:12 POR M 0
269 BELLINVIA Pier Francesco 25:58:25 ITA M 0
270 NUNES Nuno 26:00:06 POR M 0
271 DE BRUIN Emiel 26:01:29 NED M 0
272 FOURGEAUD Gilles 26:04:19 FRA M 0
273 CARDOSO Carlos 26:06:18 POR M 0
274 RODRIGUEZ VAZQUEZ Blas 26:07:38 ESP AD JARNACHAS M 0
275 DEVINE Keri 26:09:52 NZL F 25 F 0
276 SMITH Rob 26:09:53 NZL M 0
277 SMIHAL Frantisek 26:16:07 SVK Summit4you M 0
278 PAULINYOVA Radka 26:16:08 SVK F 26 F 0
279 ROSNAY Nicolas Dulong 26:16:19 SUI M 0
280 SILVA Ricardo 26:16:44 POR M 0
281 NESTICKY Daniel 26:24:08 SVK M 0
281 HALASZ Ladislav 26:24:08 SVK M 0
283 VACAS Susana 26:27:26 POR F 27 F 0
284 YOSHIDA Noriaki 26:28:58 JPN M 0
285 ALVES Nuno 26:30:04 POR M 0
286 BENVENUTI Vittorio 26:30:35 ITA M 0
287 GIERULA Robert 26:30:50 POL M 0
288 MIRANDA Ana 26:33:02 POR F 28 F 0
289 AGLINSKAS Tomas 26:34:09 LTU Goodlife M 0
290 MINGOL Susana 26:34:52 ESP F 29 F 0
290 HUILLERY Jean Noel 26:34:52 FRA M 0
292 SPAK Michal 26:35:06 SVK M 0
293 TEIXEIRA Luis 26:35:29 POR M 0
294 GARNETT Ian 26:35:49 GBR M 0
295 FERGUSON Andrew 26:36:21 GBR M 0
296 FERREIRA Orlando 26:38:40 POR M 0
297 SAIZ Chuxote 26:39:46 ESP M 0
297 AGUIAR Javito 26:39:46 ESP M 0
299 PACHECO Paulo 26:40:44 POR M 0
300 DUARTE Joao 26:41:30 POR M 0
301 MORAIS Ivo 26:42:17 POR M 0
302 CASANOVA Jose Ramon 26:42:36 ESP M 0
303 SARDINHA Manuel 26:44:58 POR M 0
304 BRICARELLO Martina 26:45:07 ITA F 30 F 0
305 THIEL Thomas 26:47:35 GER M 0
306 LOUREIRO Miguel 26:50:01 POR M 0
307 CECCARELLI Marco 26:51:39 ITA M 0
308 WIKTOROWICZ Tomasz 26:51:42 POL M 0
309 GARCIA ORTIZ Juan Carlos 26:52:51 ESP C.A. Cheste M 0
310 JOHANSEN Per 27:02:21 DEN M 0
311 HUMPHREY Andy 27:02:46 GBR M 0
312 PEREZ PASTOR Joan 27:05:52 ESP M 0
313 SARIEGE Yannick 27:05:55 FRA M 0
314 DINIS Joao 27:07:44 POR M 0
315 GOSETTI Claudio 27:16:21 ITA M 0
316 GONCALVES Fabiana 27:19:47 POR F 31 F 0
317 KOWA Marcin 27:23:06 POL M 0
318 ORF O Rodolfo 27:25:49 POR M 0
319 PONCEAU Laurent 27:26:07 FRA M 0
320 FRANCOIS Arnaud 27:26:11 FRA M 0
321 PORRET Carine 27:27:45 FRA F 32 F 0
322 LEROYER Chantal 27:27:56 FRA F 33 F 0
323 HAULE Julien 27:29:00 FRA OXYGENE BELBEUF M 0
324 BERCY Mickael 27:30:23 FRA M 0
325 MESLATI Benoit 27:30:24 FRA M 0
326 BURGAUD Vincent 27:30:42 FRA M 0
327 MAILLOCHON David 27:30:50 FRA Entraid49 M 0
328 BROSSELLIER Sebastien 27:30:51 FRA IMPULSION TRAIL ANGER M 0
329 SIANO Bernard 27:31:33 FRA M 0
330 RAGUILLAT Jean Pierre 27:34:17 FRA M 0
331 SILVA Hugo 27:34:18 POR M 0
332 CAVADAS Andre 27:34:39 POR M 0
333 MADUREIRA Joaquim 27:34:40 POR M 0
333 NETA Paulo 27:34:40 POR M 0
335 MELIA Brian 27:36:32 GBR Ilkley harriers M 0
335 BRODIN Gwenael 27:36:32 FRA TRAIL RAID AVENTURE / M 0
337 DE CARVALHO Jose 27:36:33 FRA M 0
338 ROMAN Eric 27:39:16 FRA M 0
339 REJOU MECHAIN Bertrand 27:41:10 FRA M 0
340 ABOUHALI Mouad 27:42:59 FRA M 0
341 SIMARD Maxime 27:43:22 CAN M 0
342 CERINI Richard 27:43:27 FRA M 0
342 MARIONNEAU Richard 27:43:27 FRA M 0
344 SIMONSE Eva 27:44:07 NED F 34 F 0
345 HERSTEK Jakub 27:44:39 SVK M 0
346 BONNETAIN Cedric 27:45:08 FRA M 0
347 ALVES Jorge 27:45:09 FRA M 0
348 MOULLEC Jean Claude 27:46:30 FRA M 0
349 LEMMON Matthew 27:47:43 GBR M 0
350 CAPELO Daniel 27:48:22 POR SO USA - Lavandaria I M 0
351 RODRIGUES Magno 27:48:33 POR M 0
352 GONORD Bastien 27:50:40 FRA M 0
353 LUNAK David 27:51:43 CZE M 0
354 SILVA Marcelo 27:56:38 POR Carapaus de Corrida M 0
355 SIMOES Miguel 27:59:44 POR Stravistas VP M 0
356 VALLEE Marc 28:03:33 FRA M 0
357 DA SILVA Marco 28:04:22 POR Grupo Desportivo das M 0
357 PEREIRA Vitor 28:04:22 POR M 0
357 QUINTAL Joao Miguel 28:04:22 POR ACD Jardim da Serra M 0
360 M CZKA Anna 28:04:26 POL F 35 F 0
361 LIMA Bruno 28:09:28 POR M 0
362 COSTA Jean Pierre 28:13:45 FRA M 0
363 ROCHETEAU Sebastien 28:14:19 FRA M 0
364 LOUREIRO Custodio 28:19:12 POR M 0
365 QUEIROS Joao Paulo 28:19:13 POR M 0
366 SOUSA Belchior 28:19:35 POR M 0
367 PASQUERAULT Morgan 28:25:14 FRA TEAM RUN AND RAID 72 M 0
368 MOUTAULT Alan 28:25:15 FRA M 0
369 DEBRARD Jacques 28:26:58 FRA M 0
370 LOVATT Hugh 28:28:51 GBR M 0
371 LILJA Kenneth 28:30:02 SWE M 0
372 MAUDUIT Pascal 28:30:42 FRA TRI AVENTURE M 0
373 INISAN Graziella 28:32:16 FRA F 36 F 0
374 HESLOP Claire 28:32:58 CAN F 37 F 0
375 FIGUEIREDO NUNO 28:34:57 POR COA-Clube de Orienta? M 0
376 FRANCO Rui 28:35:02 POR M 0
377 SMERECIUC Paul 28:35:03 ROU M 0
378 GUERRA Ricardo 28:35:42 POR M 0
379 GRANT Iain 28:35:53 GBR FTS race team M 0
380 SOUSA Rui 28:36:02 POR M 0
381 OLIVIER Cyril 28:37:11 FRA les eclopes M 0
381 HELAINE Anthony 28:37:11 FRA M 0
383 PALAGONIA Alexandre 28:39:00 FRA M 0
384 HAAKE Klaus 28:39:20 GER M 0
385 PAIRAIN Leo 28:41:45 FRA M 0
386 BARTH Francis 28:43:12 FRA Team Maennelstein / T M 0
386 BARTH Jean Daniel 28:43:12 FRA M 0
386 DROUHIN David 28:43:12 FRA M 0
389 R THLISBERGER Silvio 28:44:09 SUI M 0
390 PAIVA Andre 28:49:26 POR M 0
391 ESPINA Rolando 28:50:25 GBR M 0
391 AURE Loic 28:50:25 FRA M 0
393 FERREIRA Alvaro 28:51:12 POR M 0
394 BECARD Dominique 28:51:16 FRA Stade Sottevillais 76 F 38 F 0
395 DUARTE Antonio 29:00:05 POR M 0
396 DAMASCENO Nuno 29:06:44 POR M 0
397 CORR A DE OLIVEIRA Salvador 29:06:45 POR M 0
397 RIBEIRO Luis 29:06:45 POR M 0
399 PEREIRA Jo o 29:09:20 POR M 0
400 NEVES FAbio 29:19:10 POR M 0
401 SANJURJO Alberto 29:19:18 ESP M 0
402 SHAFIEE Mir 29:19:26 CAN M 0
403 WALDEMAR Mis 29:23:19 POL M 0
403 SZUKA A Damian 29:23:19 POL M 0
405 SILVA Rodolfo 29:24:38 POR Prozis / EDV - Viana M 0
406 AGUIAR Alberto 29:27:05 POR M 0
407 PIERRON Julie 29:27:07 FRA La Reunion F 39 F 0
408 SOUSA Tiago Dinis 29:27:46 POR M 0
409 KONGSTED Hans Christian 29:31:08 DEN M 0
410 PAO Telmo 29:31:10 POR M 0
411 DENIS Bertrand 29:34:17 FRA Impuslion Trail Anger M 0
412 COCHARD Fabrice 29:35:02 FRA M 0
413 GEORGER Adrien 29:35:04 FRA YPRL saint cyr triath M 0
414 CAMPODONICO Nicolas 29:37:07 FRA ASPTT Nice M 0
415 BEY Loic 29:37:23 FRA M 0
416 WIDER Jerome 29:37:27 SUI M 0
417 ESPINOSA Florian 29:37:41 FRA M 0
418 CORREIA Ricardo 29:38:11 POR M 0
419 ALVAREZ DALAMA Rosendo 29:40:37 ESP M 0
420 DIAS Francisco 29:44:45 POR M 0
421 MENDONCA Sonia 29:44:46 POR Madeira Trail Team F 40 F 0
422 MARTINS Jorge 29:47:11 FRA M 0
423 RYCKELYNCK Cindy 29:52:03 FRA F 41 F 0
423 PAVY Gabriel 29:52:03 FRA M 0
425 AUGUSTO Bruno 29:59:34 POR M 0
426 M KEL Tiina 30:05:28 FIN F 42 F 0
427 MAJURI Henna 30:05:30 FIN F 43 F 0
428 ONCA Luis 30:09:42 POR CD Metralhas M 0
428 FRANcA Pedro 30:09:42 POR M 0
430 O'DWYER Laurence 30:10:44 IRL M 0
431 MARTINHO Valter 30:16:48 POR M 0
432 SKONIECKI Micha 30:23:02 POL M 0
433 CAMACHO Luzia 30:25:07 BRA F 44 F 0
433 CHAVES Graciela 30:25:07 POR Madeira Trail Team F 44 F 0
435 CAMACHO Paulo 30:25:56 POR M 0
436 MATOS LuIs 30:29:26 POR M 0
437 ANTUNES Nuno 30:29:27 POR M 0
438 ROSA Goncalo 30:29:51 POR M 0
439 LORIDAN Boris 30:31:09 FRA M 0
440 GRASSINI Cesare Giovanni 30:32:34 ITA M 0
441 FISKE Mark 30:33:59 GBR Leighton Fun Runners M 0
442 CASSAN Stephane 30:34:24 FRA M 0
443 ORR David 30:36:29 CAN M 0
444 THEZE Laurent 30:36:44 FRA M 0
445 DRECHSLER Jean Michel 30:37:31 FRA M 0
446 MAGALH ES Pedro 30:39:04 POR M 0
447 KOTAI Victor 30:39:08 ROU M 0
448 AFONSO Luis 30:41:48 POR Georunners Portugal M 0
449 BIASINO Fabrice 30:42:00 BEL M 0
450 WASMES Isabelle 30:42:01 BEL F 46 F 0
451 MCGRATH Heather 30:42:13 USA F 47 F 0
452 KHALFALLAH Marwane 30:42:30 FRA M 0
453 BRONDEAU Laurent 30:42:31 FRA M 0
454 HABOECK Sebastian 30:46:41 AUT M 0
455 KIMMEL Florian 30:46:42 AUT M 0
456 LASOK Wojcik Sylwia 30:47:15 POL F 48 F 0
457 ALFIERI Nicola 30:48:46 ITA M 0
458 HAMILTON Craig 30:53:30 GBR M 0
459 AMORIM Andreia 30:54:27 POR F 49 F 0
460 BARON Ange 30:54:32 FRA M 0
461 COTTET Colette 30:54:34 FRA F 50 F 0
462 ROMERO PALACIO Ruben 30:54:50 ESP M 0
463 DEMILLY Laurent 30:56:28 FRA Gravity running exp?r M 0
464 STRAND Monica 31:01:03 NOR F 51 F 0
465 RAUTER Du an 31:01:09 SLO M 0
466 EBERHEIM Rainer 31:01:28 GER TGV Schotten M 0
467 ASSUNc O Pedro 31:02:44 POR M 0
468 BOUSQUET Alexis 31:03:20 FRA M 0
469 GARNIER Sebastien 31:03:50 FRA M 0
470 CLIFTON Andrew 31:05:22 GBR M 0
471 BOUQUET Pascal 31:14:47 FRA M 0
471 CARON Nicolas 31:14:47 FRA M 0
473 SILVA Marlene 31:14:59 POR F 52 F 0
474 JARDIM Ricardo 31:15:17 POR M 0
475 ESCREVENTE Valter 31:15:46 POR M 0
476 TATKIEWICZ Witold 31:16:55 POL M 0
477 STARK JUrgen 31:20:13 GER LA Sonneberg M 0
478 CARIOLATO Roberta 31:22:54 ITA F 53 F 0
479 LAMEIRAS Manuel 31:23:20 POR M 0
480 KROL Mieczyslaw 31:23:26 POL Gymbox CF Opole / Bie M 0
481 BOURBAO Murielle 31:25:13 FRA F 54 F 0
481 FISCHER Arthur 31:25:13 FRA M 0
483 HAUTEFORT Stef 31:26:32 FRA M 0
484 PINSUVANA Kanin 31:27:04 THA M 0
485 HANAK Radek 31:29:09 CZE M 0
486 LYSIONOK Sergej 31:32:19 LTU M 0
487 CUSToDIO Filipe 31:34:17 POR M 0
488 SANTOS Javier 31:34:18 POR Plano D / Runner An?n M 0
488 AZEVEDO Rui 31:34:18 POR M 0
490 RAMOS Jose 31:35:47 POR ACD JARDIM DA SERRA M 0
491 ZUTTERMAN Donald 31:36:13 BEL M 0
492 GUERIOT Fabrice 31:36:58 FRA M 0
493 JOAO Almeida 31:37:44 POR M 0
494 DENIS Jonathan 31:38:11 FRA M 0
495 JAWORSKI Marcin 31:38:13 POL M 0
496 ZAJAC Adam 31:40:35 POL W Pogoni Za Duchem M 0


ReferencementCe site est listé dans la catégorie Sport : Sports extrêmes Dictionnaire
| Accueil | La Réunion  Vue du ciel | Météo | Cyclones | Volcan | Cirques de Mafate , Cilaos , Salazie | Photos Randonnées | Randonnées Réunion: Randos Espiègle , Courses montagne | Diagonale des Fous |  Marathon des Sables | Voyages Les stats du site | Fonds écran | Plan du site | Blog de runraid | Galerie photos Sport Réunion |